Terminal Aerodrome Forecast
Issued by NWS

Home | Current Version | Previous Version | Text Only | Print | Product List | Glossary On
Versions: 1 2 3 4 5 6 7 8 9 10 11 12 13 14 15 16 17 18 19 20 21
157
FTUS46 KSEW 132351
TAFCLM
TAF
KCLM 132351Z 1400/1424 05004KT 6SM -RA BR SCT015 OVC040
     FM140100 29006KT P6SM VCSH SCT030 BKN045 OVC060
     FM141100 VRB03KT P6SM -RA SCT010 BKN030 OVC050
     FM141600 28009KT P6SM VCSH SCT030 BKN090=

USA.gov is the U.S. government's official web portal to all federal, state and local government web resources and services.